createdAt,value
2023-01-19T00:00:19.797Z,61.92
2023-01-19T00:01:05.131Z,59.37
2023-01-19T00:01:50.778Z,61.92
2023-01-19T00:02:34.944Z,57.64
2023-01-19T00:03:20.120Z,61.92
2023-01-19T00:04:05.099Z,61.94
2023-01-19T00:04:50.296Z,61.94
2023-01-19T00:05:35.177Z,62.47
2023-01-19T00:06:19.995Z,55.07
2023-01-19T00:07:05.389Z,57.64
2023-01-19T00:07:50.398Z,55.14
2023-01-19T00:08:35.671Z,57.36
2023-01-19T00:09:20.531Z,45.72
2023-01-19T00:10:05.375Z,60.22
2023-01-19T00:10:50.672Z,60.22
2023-01-19T00:11:36.286Z,65.38
2023-01-19T00:12:20.524Z,62.66
2023-01-19T00:13:05.819Z,64.62
2023-01-19T00:13:51.109Z,61.66
2023-01-19T00:14:36.034Z,67.04
2023-01-19T00:15:21.302Z,67.04
2023-01-19T00:16:07.242Z,67.04
2023-01-19T00:16:52.229Z,67.85
2023-01-19T00:17:36.198Z,72.95
2023-01-19T00:18:21.009Z,76.44
2023-01-19T00:19:06.226Z,70.27
2023-01-19T00:19:51.178Z,69.96
2023-01-19T00:20:36.184Z,69.55
2023-01-19T00:21:21.390Z,69.55
2023-01-19T00:22:06.393Z,76.86
2023-01-19T00:22:51.402Z,69.86
2023-01-19T00:23:36.456Z,75.62
2023-01-19T00:24:36.468Z,0.00
2023-01-19T00:25:21.654Z,0.00
2023-01-19T00:26:06.596Z,0.00
2023-01-19T00:26:51.479Z,0.00
2023-01-19T00:27:36.388Z,0.00
2023-01-19T00:28:21.529Z,0.00
2023-01-19T00:29:07.321Z,0.00
2023-01-19T00:29:51.767Z,0.00
2023-01-19T00:30:38.254Z,0.00
2023-01-19T00:31:23.945Z,0.00
2023-01-19T00:32:06.630Z,0.00
2023-01-19T00:32:51.728Z,0.00
2023-01-19T00:33:36.557Z,85.21
2023-01-19T00:34:21.789Z,82.19
2023-01-19T00:35:07.303Z,82.19
2023-01-19T00:35:52.004Z,82.28
2023-01-19T00:36:36.687Z,82.28
2023-01-19T00:37:21.851Z,69.21
2023-01-19T00:38:07.091Z,55.74
2023-01-19T00:38:52.267Z,89.97
2023-01-19T00:39:37.436Z,96.97
2023-01-19T00:40:22.086Z,104.96
2023-01-19T00:41:07.198Z,80.97
2023-01-19T00:41:52.467Z,125.96
2023-01-19T00:42:37.933Z,125.96
2023-01-19T00:43:22.600Z,125.96
2023-01-19T00:44:07.746Z,113.96
2023-01-19T00:44:52.988Z,113.96
2023-01-19T00:45:37.874Z,86.43
2023-01-19T00:46:22.612Z,82.40
2023-01-19T00:47:07.840Z,82.40
2023-01-19T00:47:53.013Z,96.12
2023-01-19T00:48:38.067Z,96.12
2023-01-19T00:49:23.124Z,96.12
2023-01-19T00:50:08.092Z,96.12
2023-01-19T00:50:53.455Z,96.12
2023-01-19T00:51:38.331Z,96.12
2023-01-19T00:52:23.452Z,96.12
2023-01-19T00:53:08.410Z,96.12
2023-01-19T00:53:53.361Z,96.12
2023-01-19T00:54:38.217Z,127.82
2023-01-19T00:55:23.381Z,106.62
2023-01-19T00:56:08.914Z,106.62
2023-01-19T00:56:53.505Z,106.62
2023-01-19T00:57:38.769Z,106.62
2023-01-19T00:58:23.606Z,106.62
2023-01-19T00:59:08.568Z,106.62
2023-01-19T00:59:53.710Z,106.62
2023-01-19T01:00:38.669Z,106.62
2023-01-19T01:01:45.556Z,106.62
2023-01-19T01:02:09.148Z,106.62
2023-01-19T01:02:55.440Z,106.62
2023-01-19T01:03:39.405Z,106.62
2023-01-19T01:04:23.947Z,106.62
2023-01-19T01:05:08.784Z,106.62
2023-01-19T01:05:53.956Z,106.62
2023-01-19T01:06:39.233Z,106.62
2023-01-19T01:07:24.383Z,106.62
2023-01-19T01:08:09.264Z,106.62
2023-01-19T01:08:53.975Z,106.62
2023-01-19T01:09:39.138Z,106.62
2023-01-19T01:10:24.365Z,106.62
2023-01-19T01:11:08.634Z,106.62
2023-01-19T01:11:53.638Z,66.62
2023-01-19T01:12:38.851Z,66.62
2023-01-19T01:13:26.230Z,66.62
2023-01-19T01:14:09.266Z,66.62
2023-01-19T01:14:54.537Z,66.62
2023-01-19T01:15:38.787Z,80.78
2023-01-19T01:16:23.949Z,80.78
2023-01-19T01:17:09.832Z,80.78
2023-01-19T01:17:54.666Z,80.78
2023-01-19T01:18:39.235Z,91.28
2023-01-19T01:19:24.266Z,78.52
2023-01-19T01:20:09.721Z,78.52
2023-01-19T01:20:56.053Z,78.52
2023-01-19T01:21:41.757Z,78.52
2023-01-19T01:22:24.990Z,78.52
2023-01-19T01:23:09.644Z,81.04
2023-01-19T01:23:55.176Z,83.97
2023-01-19T01:24:39.484Z,81.58
2023-01-19T01:25:24.917Z,81.63
2023-01-19T01:26:09.995Z,80.78
2023-01-19T01:26:57.221Z,77.43
2023-01-19T01:27:40.798Z,77.74
2023-01-19T01:28:25.661Z,77.74
2023-01-19T01:29:12.318Z,77.74
2023-01-19T01:29:57.023Z,76.61
2023-01-19T01:30:41.057Z,76.61
2023-01-19T01:31:25.593Z,76.61
2023-01-19T01:32:10.636Z,79.16
2023-01-19T01:32:55.687Z,84.66
2023-01-19T01:33:41.813Z,78.08
2023-01-19T01:34:27.541Z,78.08
2023-01-19T01:35:11.033Z,78.08
2023-01-19T01:35:55.290Z,77.19
2023-01-19T01:36:40.554Z,87.37
2023-01-19T01:37:26.020Z,86.05
2023-01-19T01:38:11.108Z,78.88
2023-01-19T01:38:56.626Z,78.88
2023-01-19T01:39:40.924Z,60.99
2023-01-19T01:40:25.718Z,75.12
2023-01-19T01:41:11.422Z,75.12
2023-01-19T01:41:57.526Z,75.12
2023-01-19T01:42:41.109Z,71.08
2023-01-19T01:43:26.062Z,53.55
2023-01-19T01:44:11.554Z,75.86
2023-01-19T01:44:57.083Z,64.93
2023-01-19T01:45:41.560Z,49.04
2023-01-19T01:46:26.329Z,63.49
2023-01-19T01:47:11.043Z,104.72
2023-01-19T01:47:56.453Z,144.95
2023-01-19T01:48:41.358Z,143.95
2023-01-19T01:49:26.310Z,81.97
2023-01-19T01:50:11.486Z,150.95
2023-01-19T01:50:56.801Z,122.46
2023-01-19T01:51:41.931Z,147.95
2023-01-19T01:52:26.639Z,102.96
2023-01-19T01:53:11.922Z,93.97
2023-01-19T01:53:56.773Z,80.98
2023-01-19T01:54:41.856Z,96.97
2023-01-19T01:55:26.910Z,95.97
2023-01-19T01:56:12.138Z,41.11
2023-01-19T01:56:57.111Z,69.86
2023-01-19T01:57:42.088Z,43.98
2023-01-19T01:58:26.903Z,44.55
2023-01-19T01:59:12.317Z,41.30
2023-01-19T01:59:57.402Z,38.78
2023-01-19T02:00:42.429Z,41.11
2023-01-19T02:01:29.257Z,39.20
2023-01-19T02:02:12.272Z,40.15
2023-01-19T02:02:57.453Z,44.93
2023-01-19T02:03:43.158Z,73.18
2023-01-19T02:04:27.912Z,103.97
2023-01-19T02:05:12.391Z,103.97
2023-01-19T02:05:58.494Z,114.97
2023-01-19T02:06:42.908Z,94.97
2023-01-19T02:07:27.980Z,49.75
2023-01-19T02:08:13.130Z,90.97
2023-01-19T02:08:58.318Z,90.97
2023-01-19T02:09:43.556Z,90.97
2023-01-19T02:10:28.731Z,90.97
2023-01-19T02:11:13.176Z,69.19
2023-01-19T02:11:58.570Z,69.19
2023-01-19T02:12:43.258Z,100.97
2023-01-19T02:13:28.440Z,95.97
2023-01-19T02:14:13.322Z,80.97
2023-01-19T02:14:58.537Z,59.57
2023-01-19T02:15:45.403Z,59.57
2023-01-19T02:16:28.471Z,74.35
2023-01-19T02:17:13.525Z,74.35
2023-01-19T02:17:58.551Z,83.83
2023-01-19T02:18:44.198Z,63.35
2023-01-19T02:19:29.301Z,75.71
2023-01-19T02:20:17.766Z,80.01
2023-01-19T02:20:59.256Z,80.87
2023-01-19T02:21:44.145Z,79.73
2023-01-19T02:22:29.067Z,83.54
2023-01-19T02:23:14.589Z,83.54
2023-01-19T02:23:59.034Z,78.54
2023-01-19T02:24:44.330Z,78.29
2023-01-19T02:25:29.392Z,66.24
2023-01-19T02:26:14.186Z,64.42
2023-01-19T02:26:59.453Z,62.80
2023-01-19T02:27:44.707Z,70.18
2023-01-19T02:28:29.445Z,78.08
2023-01-19T02:29:14.869Z,74.80
2023-01-19T02:29:59.659Z,70.69
2023-01-19T02:30:44.249Z,67.67
2023-01-19T02:31:29.799Z,76.86
2023-01-19T02:32:14.586Z,80.20
2023-01-19T02:33:00.149Z,71.01
2023-01-19T02:33:45.109Z,79.36
2023-01-19T02:34:30.137Z,74.64
2023-01-19T02:35:15.179Z,70.18
2023-01-19T02:36:02.719Z,70.18
2023-01-19T02:36:44.893Z,61.41
2023-01-19T02:37:30.215Z,67.86
2023-01-19T02:38:16.102Z,80.20
2023-01-19T02:39:00.365Z,79.73
2023-01-19T02:39:45.188Z,69.04
2023-01-19T02:40:30.460Z,67.85
2023-01-19T02:41:16.068Z,67.85
2023-01-19T02:42:03.018Z,67.85
2023-01-19T02:42:46.439Z,67.85
2023-01-19T02:43:30.777Z,67.85
2023-01-19T02:44:16.314Z,67.85
2023-01-19T02:45:02.076Z,67.85
2023-01-19T02:45:47.210Z,67.85
2023-01-19T02:46:33.873Z,67.85
2023-01-19T02:47:17.006Z,73.07
2023-01-19T02:48:01.116Z,69.98
2023-01-19T02:48:46.025Z,75.62
2023-01-19T02:49:32.902Z,70.80
2023-01-19T02:50:16.190Z,75.93
2023-01-19T02:51:01.981Z,75.93
2023-01-19T02:51:46.479Z,75.93
2023-01-19T02:52:31.259Z,81.43
2023-01-19T02:53:16.517Z,79.16
2023-01-19T02:54:01.680Z,83.54
2023-01-19T02:54:46.639Z,83.54
2023-01-19T02:55:31.491Z,79.42
2023-01-19T02:56:17.711Z,67.75
2023-01-19T02:57:01.996Z,67.75
2023-01-19T02:57:46.745Z,67.75
2023-01-19T02:58:32.223Z,67.75
2023-01-19T02:59:16.770Z,67.75
2023-01-19T03:00:02.289Z,67.75
2023-01-19T03:00:46.997Z,67.75
2023-01-19T03:01:32.204Z,67.75
2023-01-19T03:02:17.806Z,67.75
2023-01-19T03:03:02.912Z,67.75
2023-01-19T03:03:47.098Z,67.75
2023-01-19T03:04:32.355Z,67.75
2023-01-19T03:05:19.369Z,67.75
2023-01-19T03:06:02.181Z,67.75
2023-01-19T03:06:48.377Z,67.75
2023-01-19T03:07:32.485Z,67.75
2023-01-19T03:08:17.501Z,67.75
2023-01-19T03:09:03.044Z,67.75
2023-01-19T03:09:48.096Z,67.75
2023-01-19T03:10:32.525Z,67.75
2023-01-19T03:11:17.879Z,67.75
2023-01-19T03:12:03.026Z,67.75
2023-01-19T03:12:48.187Z,67.75
2023-01-19T03:13:33.159Z,67.75
2023-01-19T03:14:17.476Z,67.75
2023-01-19T03:15:03.148Z,67.75
2023-01-19T03:15:48.225Z,67.75
2023-01-19T03:16:35.215Z,67.75
2023-01-19T03:17:19.958Z,67.75
2023-01-19T03:18:03.374Z,67.75
2023-01-19T03:18:47.955Z,67.75
2023-01-19T03:19:33.300Z,67.75
2023-01-19T03:20:18.143Z,67.75
2023-01-19T03:21:02.895Z,67.75
2023-01-19T03:21:48.256Z,67.40
2023-01-19T03:22:32.716Z,59.18
2023-01-19T03:23:17.706Z,72.27
2023-01-19T03:24:02.923Z,59.36
2023-01-19T03:24:47.984Z,136.95
2023-01-19T03:25:32.930Z,127.96
2023-01-19T03:26:17.762Z,85.95
2023-01-19T03:27:02.924Z,41.17
2023-01-19T03:27:48.154Z,129.89
2023-01-19T03:28:33.093Z,85.59
2023-01-19T03:29:17.994Z,83.95
2023-01-19T03:30:03.186Z,105.96
2023-01-19T03:30:48.829Z,77.97
2023-01-19T03:31:33.288Z,79.97
2023-01-19T03:32:18.377Z,68.98
2023-01-19T03:33:03.628Z,92.97
2023-01-19T03:33:48.543Z,83.97
2023-01-19T03:34:33.733Z,81.96
2023-01-19T03:35:21.994Z,103.97
2023-01-19T03:36:03.666Z,88.98
2023-01-19T03:36:48.853Z,88.98
2023-01-19T03:37:33.720Z,95.97
2023-01-19T03:38:18.797Z,90.97
2023-01-19T03:39:04.030Z,71.35
2023-01-19T03:39:48.989Z,54.84
2023-01-19T03:40:34.189Z,126.81
2023-01-19T03:41:19.252Z,142.95
2023-01-19T03:42:04.364Z,134.92
2023-01-19T03:42:49.598Z,139.96
2023-01-19T03:43:34.815Z,139.96
2023-01-19T03:44:19.632Z,139.96
2023-01-19T03:45:05.486Z,139.96
2023-01-19T03:45:49.964Z,139.96
2023-01-19T03:46:35.419Z,139.96
2023-01-19T03:47:19.519Z,139.96
2023-01-19T03:48:05.248Z,139.96
2023-01-19T03:48:50.236Z,139.96
2023-01-19T03:49:35.479Z,139.96
2023-01-19T03:50:20.489Z,139.96
2023-01-19T03:51:05.346Z,139.96
2023-01-19T03:51:50.223Z,139.96
2023-01-19T03:52:35.478Z,139.96
2023-01-19T03:53:20.634Z,139.96
2023-01-19T03:54:05.057Z,139.96
2023-01-19T03:54:50.801Z,139.96
2023-01-19T03:55:35.554Z,139.96
2023-01-19T03:56:20.770Z,139.96
2023-01-19T03:57:05.796Z,139.96
2023-01-19T03:57:51.151Z,139.96
2023-01-19T03:58:36.116Z,139.96
2023-01-19T03:59:20.861Z,139.96
2023-01-19T04:00:06.293Z,139.96
2023-01-19T04:00:51.362Z,139.96
2023-01-19T04:01:36.303Z,126.26
2023-01-19T04:02:20.514Z,91.50
2023-01-19T04:03:06.165Z,91.50
2023-01-19T04:03:51.514Z,91.50
2023-01-19T04:04:35.949Z,91.50
2023-01-19T04:05:21.234Z,91.50
2023-01-19T04:06:05.798Z,95.97
2023-01-19T04:06:51.030Z,123.97
2023-01-19T04:07:35.790Z,123.97
2023-01-19T04:08:20.928Z,101.97
2023-01-19T04:09:05.882Z,112.73
2023-01-19T04:09:51.058Z,120.94
2023-01-19T04:10:36.395Z,143.96
2023-01-19T04:11:21.388Z,126.96
2023-01-19T04:12:06.491Z,134.96
2023-01-19T04:12:51.224Z,130.93
2023-01-19T04:13:36.512Z,122.97
2023-01-19T04:14:21.394Z,114.97
2023-01-19T04:15:06.561Z,90.97
2023-01-19T04:15:51.723Z,89.97
2023-01-19T04:16:36.679Z,89.97
2023-01-19T04:17:21.713Z,48.23
2023-01-19T04:18:06.795Z,40.13
2023-01-19T04:18:51.815Z,40.89
2023-01-19T04:19:36.931Z,43.02
2023-01-19T04:20:21.831Z,43.02
2023-01-19T04:21:07.442Z,44.70
2023-01-19T04:21:52.271Z,47.92
2023-01-19T04:22:37.827Z,98.93
2023-01-19T04:23:22.200Z,140.93
2023-01-19T04:24:08.031Z,146.96
2023-01-19T04:24:52.351Z,171.91
2023-01-19T04:25:38.855Z,171.91
2023-01-19T04:26:23.091Z,171.91
2023-01-19T04:27:07.439Z,74.12
2023-01-19T04:27:52.808Z,74.12
2023-01-19T04:28:37.973Z,74.12
2023-01-19T04:29:22.715Z,74.12
2023-01-19T04:30:07.976Z,74.12
2023-01-19T04:30:52.778Z,57.36
2023-01-19T04:31:38.174Z,82.11
2023-01-19T04:32:23.072Z,78.54
2023-01-19T04:33:07.991Z,78.46
2023-01-19T04:33:53.072Z,79.42
2023-01-19T04:34:37.939Z,81.95
2023-01-19T04:35:22.725Z,81.95
2023-01-19T04:36:08.526Z,75.58
2023-01-19T04:36:53.592Z,85.59
2023-01-19T04:37:38.419Z,54.64
2023-01-19T04:38:23.525Z,60.42
2023-01-19T04:39:08.543Z,63.13
2023-01-19T04:39:53.232Z,52.81
2023-01-19T04:40:39.092Z,45.73
2023-01-19T04:41:23.536Z,45.73
2023-01-19T04:42:08.584Z,48.69
2023-01-19T04:42:53.738Z,60.42
2023-01-19T04:43:38.893Z,57.37
2023-01-19T04:44:23.839Z,60.64
2023-01-19T04:45:09.226Z,62.02
2023-01-19T04:45:53.869Z,64.65
2023-01-19T04:46:38.626Z,59.18
2023-01-19T04:47:24.476Z,59.18
2023-01-19T04:48:10.080Z,59.18
2023-01-19T04:48:57.287Z,59.18
2023-01-19T04:49:39.037Z,59.18
2023-01-19T04:50:25.656Z,59.18
2023-01-19T04:51:09.047Z,56.54
2023-01-19T04:51:56.349Z,56.54
2023-01-19T04:52:39.103Z,56.54
2023-01-19T04:53:27.823Z,56.54
2023-01-19T04:54:10.825Z,56.54
2023-01-19T04:54:59.236Z,56.54
2023-01-19T04:55:41.529Z,56.54
2023-01-19T04:56:25.264Z,56.54
2023-01-19T04:57:09.525Z,49.29
2023-01-19T04:57:55.274Z,49.29
2023-01-19T04:58:39.447Z,32.32
2023-01-19T04:59:25.499Z,32.32
2023-01-19T05:00:10.945Z,32.32
2023-01-19T05:00:56.951Z,44.41
2023-01-19T05:01:40.576Z,40.52
2023-01-19T05:02:25.425Z,40.52
2023-01-19T05:03:10.488Z,33.86
2023-01-19T05:03:55.130Z,41.92
2023-01-19T05:04:40.319Z,44.96
2023-01-19T05:05:25.518Z,43.26
2023-01-19T05:06:10.428Z,41.92
2023-01-19T05:06:55.222Z,45.11
2023-01-19T05:07:40.615Z,36.74
2023-01-19T05:08:26.032Z,49.29
2023-01-19T05:09:10.270Z,49.29
2023-01-19T05:09:55.778Z,45.21
2023-01-19T05:10:41.041Z,49.32
2023-01-19T05:11:25.864Z,41.56
2023-01-19T05:12:11.040Z,44.11
2023-01-19T05:12:56.363Z,40.43
2023-01-19T05:13:41.002Z,42.36
2023-01-19T05:14:26.033Z,37.81
2023-01-19T05:15:13.913Z,37.81
2023-01-19T05:15:56.366Z,55.89
2023-01-19T05:16:41.067Z,57.35
2023-01-19T05:17:26.279Z,51.80
2023-01-19T05:18:11.010Z,53.43
2023-01-19T05:18:58.176Z,53.43
2023-01-19T05:19:41.137Z,54.12
2023-01-19T05:20:26.447Z,50.13
2023-01-19T05:21:11.912Z,50.13
2023-01-19T05:21:56.714Z,40.27
2023-01-19T05:22:41.316Z,49.32
2023-01-19T05:23:26.463Z,49.32
2023-01-19T05:24:13.171Z,49.32
2023-01-19T05:24:58.022Z,49.32
2023-01-19T05:25:41.548Z,49.32
2023-01-19T05:26:26.921Z,54.42
2023-01-19T05:27:11.757Z,47.67
2023-01-19T05:27:56.733Z,53.34
2023-01-19T05:28:42.055Z,60.89
2023-01-19T05:29:26.350Z,60.89
2023-01-19T05:30:11.840Z,44.11
2023-01-19T05:30:57.337Z,56.83
2023-01-19T05:31:41.979Z,54.12
2023-01-19T05:32:27.050Z,51.70
2023-01-19T05:33:12.005Z,56.71
2023-01-19T05:33:57.290Z,52.60
2023-01-19T05:34:42.313Z,55.97
2023-01-19T05:35:35.325Z,61.64
2023-01-19T05:36:12.176Z,64.33
2023-01-19T05:36:57.276Z,60.22
2023-01-19T05:37:41.745Z,59.79
2023-01-19T05:38:34.500Z,60.42
2023-01-19T05:39:12.169Z,65.15
2023-01-19T05:39:57.877Z,60.00
2023-01-19T05:40:41.788Z,55.01
2023-01-19T05:41:27.140Z,42.55
2023-01-19T05:42:11.968Z,30.11
2023-01-19T05:42:56.807Z,30.11
2023-01-19T05:43:41.875Z,45.15
2023-01-19T05:44:27.786Z,83.98
2023-01-19T05:45:12.137Z,71.98
2023-01-19T05:45:57.673Z,71.98
2023-01-19T05:46:42.797Z,74.98
2023-01-19T05:47:27.255Z,72.98
2023-01-19T05:48:12.369Z,50.85
2023-01-19T05:48:57.361Z,43.02
2023-01-19T05:49:42.327Z,39.47
2023-01-19T05:50:27.427Z,39.71
2023-01-19T05:51:12.550Z,39.94
2023-01-19T05:51:57.392Z,38.99
2023-01-19T05:52:42.463Z,40.89
2023-01-19T05:53:27.916Z,40.89
2023-01-19T05:54:12.450Z,39.20
2023-01-19T05:54:57.505Z,40.15
2023-01-19T05:55:42.659Z,40.15
2023-01-19T05:56:27.896Z,39.94
2023-01-19T05:57:12.981Z,40.66
2023-01-19T05:57:58.168Z,42.29
2023-01-19T05:58:42.991Z,54.23
2023-01-19T05:59:28.584Z,39.27
2023-01-19T06:00:13.115Z,36.99
2023-01-19T06:00:58.858Z,36.99
2023-01-19T06:01:43.068Z,51.80
2023-01-19T06:02:28.747Z,55.59
2023-01-19T06:03:13.460Z,54.29
2023-01-19T06:03:59.049Z,54.29
2023-01-19T06:04:43.191Z,54.29
2023-01-19T06:05:28.687Z,54.29
2023-01-19T06:06:13.555Z,62.23
2023-01-19T06:06:58.720Z,51.80
2023-01-19T06:07:43.565Z,51.18
2023-01-19T06:08:28.927Z,51.18
2023-01-19T06:09:13.603Z,48.20
2023-01-19T06:09:59.152Z,48.20
2023-01-19T06:10:45.840Z,48.20
2023-01-19T06:11:29.317Z,48.20
2023-01-19T06:12:14.833Z,48.20
2023-01-19T06:12:59.447Z,48.20
2023-01-19T06:13:44.064Z,48.20
2023-01-19T06:14:29.176Z,48.20
2023-01-19T06:15:14.986Z,55.92
2023-01-19T06:15:59.256Z,57.64
2023-01-19T06:16:44.346Z,57.64
2023-01-19T06:17:29.431Z,57.64
2023-01-19T06:18:14.046Z,53.47
2023-01-19T06:18:59.263Z,52.59
2023-01-19T06:19:44.213Z,61.33
2023-01-19T06:20:29.217Z,57.36
2023-01-19T06:21:14.496Z,57.68
2023-01-19T06:22:00.050Z,57.68
2023-01-19T06:22:44.790Z,57.68
2023-01-19T06:23:29.561Z,61.08
2023-01-19T06:24:14.664Z,65.16
2023-01-19T06:24:59.978Z,65.16
2023-01-19T06:25:45.274Z,65.16
2023-01-19T06:26:30.259Z,65.16
2023-01-19T06:27:16.989Z,65.16
2023-01-19T06:28:01.211Z,65.16
2023-01-19T06:28:45.701Z,65.16
2023-01-19T06:29:30.304Z,46.89
2023-01-19T06:30:15.114Z,73.95
2023-01-19T06:31:00.060Z,55.99
2023-01-19T06:31:45.424Z,59.36
2023-01-19T06:32:30.550Z,82.07
2023-01-19T06:33:15.491Z,81.18
2023-01-19T06:34:00.546Z,70.59
2023-01-19T06:34:45.541Z,74.85
2023-01-19T06:35:30.564Z,50.99
2023-01-19T06:36:15.726Z,48.50
2023-01-19T06:37:01.018Z,47.55
2023-01-19T06:37:45.576Z,47.28
2023-01-19T06:38:30.892Z,44.67
2023-01-19T06:39:15.630Z,62.23
2023-01-19T06:40:00.706Z,60.14
2023-01-19T06:40:45.682Z,52.95
2023-01-19T06:41:30.809Z,46.60
2023-01-19T06:42:15.856Z,49.39
2023-01-19T06:43:01.190Z,47.07
2023-01-19T06:43:46.099Z,48.76
2023-01-19T06:44:31.046Z,53.91
2023-01-19T06:45:16.118Z,46.60
2023-01-19T06:46:01.198Z,46.60
2023-01-19T06:46:46.504Z,60.99
2023-01-19T06:47:31.150Z,57.64
2023-01-19T06:48:16.410Z,58.90
2023-01-19T06:49:01.256Z,58.90
2023-01-19T06:49:47.131Z,59.79
2023-01-19T06:50:31.406Z,59.52
2023-01-19T06:51:16.539Z,64.26
2023-01-19T06:52:01.292Z,57.68
2023-01-19T06:52:46.430Z,54.71
2023-01-19T06:53:31.751Z,60.42
2023-01-19T06:54:16.455Z,61.58
2023-01-19T06:55:02.054Z,55.92
2023-01-19T06:55:46.794Z,56.78
2023-01-19T06:56:31.345Z,56.47
2023-01-19T06:57:16.371Z,52.95
2023-01-19T06:58:02.160Z,57.12
2023-01-19T06:58:46.917Z,63.13
2023-01-19T06:59:31.843Z,60.89
2023-01-19T07:00:17.239Z,55.06
2023-01-19T07:01:02.241Z,57.64
2023-01-19T07:01:46.765Z,53.34
2023-01-19T07:02:32.182Z,63.36
2023-01-19T07:03:17.888Z,63.53
2023-01-19T07:04:02.615Z,58.53
2023-01-19T07:04:47.389Z,58.53
2023-01-19T07:05:32.116Z,55.59
2023-01-19T07:06:17.454Z,66.24
2023-01-19T07:07:02.410Z,59.12
2023-01-19T07:07:47.387Z,59.12
2023-01-19T07:08:32.534Z,57.64
2023-01-19T07:09:17.576Z,57.64
2023-01-19T07:10:02.899Z,62.80
2023-01-19T07:11:26.404Z,47.02
2023-01-19T07:11:33.071Z,59.12
2023-01-19T07:12:17.807Z,59.37
2023-01-19T07:13:03.918Z,66.16
2023-01-19T07:13:48.246Z,59.12
2023-01-19T07:14:33.280Z,57.36
2023-01-19T07:15:17.996Z,61.92
2023-01-19T07:16:03.250Z,61.92
2023-01-19T07:16:48.368Z,42.26
2023-01-19T07:17:33.103Z,42.29
2023-01-19T07:18:18.791Z,44.44
2023-01-19T07:19:02.901Z,43.50
2023-01-19T07:19:48.481Z,41.89
2023-01-19T07:20:33.510Z,36.59
2023-01-19T07:21:18.589Z,36.59
2023-01-19T07:22:04.050Z,41.35
2023-01-19T07:22:48.826Z,41.35
2023-01-19T07:23:33.350Z,45.39
2023-01-19T07:24:18.527Z,43.02
2023-01-19T07:25:03.382Z,41.30
2023-01-19T07:25:48.492Z,43.58
2023-01-19T07:26:33.490Z,46.84
2023-01-19T07:27:18.343Z,45.65
2023-01-19T07:28:03.411Z,43.50
2023-01-19T07:28:48.390Z,40.15
2023-01-19T07:29:33.594Z,41.11
2023-01-19T07:30:18.797Z,41.11
2023-01-19T07:31:03.707Z,43.22
2023-01-19T07:31:49.671Z,43.22
2023-01-19T07:32:33.725Z,41.11
2023-01-19T07:33:19.012Z,42.06
2023-01-19T07:34:03.962Z,42.06
2023-01-19T07:34:48.990Z,42.06
2023-01-19T07:35:34.326Z,43.02
2023-01-19T07:36:19.860Z,43.98
2023-01-19T07:37:04.182Z,46.04
2023-01-19T07:37:49.393Z,35.83
2023-01-19T07:38:34.892Z,44.43
2023-01-19T07:39:19.779Z,43.88
2023-01-19T07:40:04.765Z,43.88
2023-01-19T07:40:50.327Z,43.88
2023-01-19T07:41:35.220Z,43.88
2023-01-19T07:42:19.976Z,43.88
2023-01-19T07:43:05.219Z,43.88
2023-01-19T07:43:50.023Z,43.88
2023-01-19T07:44:34.618Z,52.31
2023-01-19T07:45:19.979Z,65.23
2023-01-19T07:46:05.534Z,61.55
2023-01-19T07:46:50.488Z,46.65
2023-01-19T07:47:35.289Z,45.39
2023-01-19T07:48:20.275Z,44.16
2023-01-19T07:49:05.297Z,46.04
2023-01-19T07:49:50.587Z,46.04
2023-01-19T07:50:35.961Z,46.60
2023-01-19T07:51:20.782Z,46.60
2023-01-19T07:52:05.678Z,56.04
2023-01-19T07:52:51.134Z,58.28
2023-01-19T07:53:35.751Z,57.86
2023-01-19T07:54:21.035Z,40.66
2023-01-19T07:55:06.547Z,43.22
2023-01-19T07:55:50.910Z,40.66
2023-01-19T07:56:36.052Z,48.53
2023-01-19T07:57:21.041Z,43.75
2023-01-19T07:58:06.019Z,41.85
2023-01-19T07:58:51.410Z,48.45
2023-01-19T07:59:36.735Z,48.45
2023-01-19T08:00:23.668Z,48.45
2023-01-19T08:01:06.245Z,101.92
2023-01-19T08:01:51.619Z,108.49
2023-01-19T08:02:36.693Z,131.51
2023-01-19T08:03:21.658Z,126.58
2023-01-19T08:04:06.309Z,157.44
2023-01-19T08:04:51.655Z,164.13
2023-01-19T08:05:36.710Z,149.32
2023-01-19T08:06:21.795Z,119.45
2023-01-19T08:07:06.730Z,103.82
2023-01-19T08:07:53.236Z,94.60
2023-01-19T08:08:36.873Z,79.22
2023-01-19T08:09:21.685Z,78.54
2023-01-19T08:10:06.938Z,82.12
2023-01-19T08:10:52.410Z,78.09
2023-01-19T08:11:38.527Z,74.85
2023-01-19T08:12:22.107Z,81.21
2023-01-19T08:13:07.582Z,90.14
2023-01-19T08:13:52.131Z,93.79
2023-01-19T08:14:37.098Z,91.92
2023-01-19T08:15:22.032Z,93.71
2023-01-19T08:16:07.518Z,91.03
2023-01-19T08:16:52.485Z,92.82
2023-01-19T08:17:36.996Z,51.06
2023-01-19T08:18:22.217Z,43.18
2023-01-19T08:19:07.468Z,73.99
2023-01-19T08:19:52.509Z,75.71
2023-01-19T08:20:37.428Z,79.43
2023-01-19T08:21:22.391Z,72.36
2023-01-19T08:22:07.682Z,77.64
2023-01-19T08:22:52.842Z,73.18
2023-01-19T08:23:37.248Z,73.05
2023-01-19T08:24:22.680Z,72.29
2023-01-19T08:25:07.676Z,74.35
2023-01-19T08:25:53.366Z,73.18
2023-01-19T08:26:38.032Z,68.72
2023-01-19T08:27:23.046Z,75.01
2023-01-19T08:28:07.807Z,75.01
2023-01-19T08:28:53.533Z,79.15
2023-01-19T08:29:38.329Z,75.01
2023-01-19T08:30:23.388Z,80.87
2023-01-19T08:31:19.166Z,73.99
2023-01-19T08:31:53.456Z,47.35
2023-01-19T08:32:38.314Z,33.50
2023-01-19T08:33:23.995Z,40.16
2023-01-19T08:34:08.282Z,31.35
2023-01-19T08:34:53.708Z,46.77
2023-01-19T08:35:38.372Z,37.94
2023-01-19T08:36:23.865Z,45.53
2023-01-19T08:37:09.151Z,42.80
2023-01-19T08:37:53.509Z,40.16
2023-01-19T08:38:38.473Z,40.42
2023-01-19T08:39:23.860Z,46.85
2023-01-19T08:40:09.394Z,44.19
2023-01-19T08:40:54.263Z,42.80
2023-01-19T08:41:39.028Z,42.00
2023-01-19T08:42:23.784Z,43.86
2023-01-19T08:43:09.228Z,47.60
2023-01-19T08:43:54.321Z,44.80
2023-01-19T08:44:46.654Z,43.18
2023-01-19T08:45:24.097Z,45.02
2023-01-19T08:46:09.329Z,45.73
2023-01-19T08:46:54.366Z,41.89
2023-01-19T08:47:39.725Z,41.34
2023-01-19T08:48:24.652Z,41.34
2023-01-19T08:49:09.667Z,44.80
2023-01-19T08:49:57.189Z,44.80
2023-01-19T08:50:39.482Z,44.80
2023-01-19T08:51:25.153Z,77.74
2023-01-19T08:52:11.772Z,77.74
2023-01-19T08:52:57.171Z,77.74
2023-01-19T08:53:41.836Z,77.74
2023-01-19T08:54:27.199Z,77.74
2023-01-19T08:55:10.408Z,83.54
2023-01-19T08:55:54.876Z,90.14
2023-01-19T08:56:40.187Z,43.86
2023-01-19T08:57:25.210Z,45.53
2023-01-19T08:58:10.539Z,45.09
2023-01-19T08:59:08.118Z,45.73
2023-01-19T08:59:40.458Z,48.86
2023-01-19T09:00:25.391Z,48.86
2023-01-19T09:01:10.148Z,50.12
2023-01-19T09:01:55.673Z,50.12
2023-01-19T09:02:40.843Z,46.33
2023-01-19T09:03:26.039Z,44.44
2023-01-19T09:04:11.270Z,48.26
2023-01-19T09:04:55.904Z,49.46
2023-01-19T09:05:40.712Z,47.60
2023-01-19T09:06:25.879Z,45.02
2023-01-19T09:07:10.741Z,44.16
2023-01-19T09:07:56.094Z,62.66
2023-01-19T09:08:41.219Z,62.66
2023-01-19T09:09:26.232Z,62.66
2023-01-19T09:10:11.151Z,62.66
2023-01-19T09:10:56.482Z,62.66
2023-01-19T09:11:41.142Z,62.66
2023-01-19T09:12:27.054Z,62.66
2023-01-19T09:13:10.996Z,62.66
2023-01-19T09:13:56.189Z,121.97
2023-01-19T09:14:41.555Z,114.25
2023-01-19T09:15:26.412Z,127.40
2023-01-19T09:16:11.493Z,141.65
2023-01-19T09:16:56.983Z,123.29
2023-01-19T09:17:41.441Z,147.59
2023-01-19T09:18:26.085Z,119.55
2023-01-19T09:19:11.326Z,139.73
2023-01-19T09:19:57.110Z,139.73
2023-01-19T09:20:41.340Z,129.24
2023-01-19T09:21:26.698Z,129.04
2023-01-19T09:22:11.362Z,132.00
2023-01-19T09:22:57.107Z,132.00
2023-01-19T09:23:41.441Z,121.65
2023-01-19T09:24:26.707Z,130.69
2023-01-19T09:25:11.284Z,100.94
2023-01-19T09:25:57.192Z,139.95
2023-01-19T09:26:41.848Z,141.19
2023-01-19T09:27:27.664Z,102.38
2023-01-19T09:28:11.921Z,93.30
2023-01-19T09:28:56.854Z,80.30
2023-01-19T09:29:41.797Z,65.15
2023-01-19T09:30:29.292Z,71.25
2023-01-19T09:31:12.666Z,56.11
2023-01-19T09:31:56.734Z,51.06
2023-01-19T09:32:41.616Z,45.39
2023-01-19T09:33:27.630Z,45.39
2023-01-19T09:34:11.852Z,41.87
2023-01-19T09:34:56.873Z,33.93
2023-01-19T09:35:42.047Z,44.12
2023-01-19T09:36:27.685Z,37.81
2023-01-19T09:37:11.864Z,38.71
2023-01-19T09:37:57.220Z,42.15